createdAt,value
2019-04-05T00:02:03.960Z,18.40
2019-04-05T00:04:35.663Z,20.70
2019-04-05T00:07:07.378Z,26.57
2019-04-05T00:09:39.177Z,23.37
2019-04-05T00:12:11.056Z,27.03
2019-04-05T00:14:42.848Z,25.67
2019-04-05T00:17:14.559Z,25.20
2019-04-05T00:19:46.428Z,22.43
2019-04-05T00:22:18.214Z,21.93
2019-04-05T00:24:49.914Z,29.13
2019-04-05T00:27:21.652Z,22.70
2019-04-05T00:29:53.409Z,24.07
2019-04-05T00:32:25.151Z,28.33
2019-04-05T00:34:56.941Z,20.57
2019-04-05T00:37:28.647Z,23.87
2019-04-05T00:40:00.420Z,24.77
2019-04-05T00:42:32.235Z,30.50
2019-04-05T00:45:04.948Z,26.10
2019-04-05T00:47:36.668Z,24.30
2019-04-05T00:50:11.313Z,22.00
2019-04-05T00:52:43.145Z,25.30
2019-04-05T00:55:14.948Z,27.30
2019-04-05T00:57:49.428Z,22.70
2019-04-05T01:00:20.753Z,22.23
2019-04-05T01:02:52.591Z,25.67
2019-04-05T01:05:24.796Z,23.60
2019-04-05T01:07:56.514Z,29.20
2019-04-05T01:10:28.452Z,26.83
2019-04-05T01:13:00.391Z,26.10
2019-04-05T01:15:40.894Z,22.60
2019-04-05T01:18:05.747Z,28.47
2019-04-05T01:20:38.868Z,29.47
2019-04-05T01:23:11.525Z,28.87
2019-04-05T01:25:44.787Z,29.33
2019-04-05T01:28:17.736Z,34.50
2019-04-05T01:30:49.541Z,29.50
2019-04-05T01:33:21.484Z,28.90
2019-04-05T01:35:53.413Z,25.83
2019-04-05T01:38:25.140Z,24.90
2019-04-05T01:40:58.049Z,24.37
2019-04-05T01:43:29.960Z,22.47
2019-04-05T01:46:01.832Z,24.90
2019-04-05T01:48:33.649Z,38.93
2019-04-05T01:51:05.660Z,28.73
2019-04-05T01:53:37.780Z,25.17
2019-04-05T01:56:09.724Z,28.73
2019-04-05T01:58:41.463Z,26.13
2019-04-05T02:01:13.360Z,24.03
2019-04-05T02:03:45.220Z,26.50
2019-04-05T02:06:17.138Z,33.20
2019-04-05T02:08:48.965Z,35.03
2019-04-05T02:11:20.796Z,30.30
2019-04-05T02:13:52.678Z,36.37
2019-04-05T02:16:24.477Z,33.57
2019-04-05T02:18:56.405Z,30.33
2019-04-05T02:21:28.212Z,38.90
2019-04-05T02:24:00.137Z,38.40
2019-04-05T02:26:31.958Z,37.40
2019-04-05T02:29:03.811Z,34.47
2019-04-05T02:31:35.557Z,35.47
2019-04-05T02:34:07.496Z,40.00
2019-04-05T02:36:39.396Z,41.20
2019-04-05T02:39:11.232Z,52.37
2019-04-05T02:41:43.897Z,67.60
2019-04-05T02:44:17.317Z,83.07
2019-04-05T02:46:50.921Z,60.93
2019-04-05T02:49:26.459Z,70.23
2019-04-05T02:52:00.868Z,65.10
2019-04-05T02:54:34.191Z,72.47
2019-04-05T02:57:06.190Z,58.00
2019-04-05T02:59:38.821Z,67.30
2019-04-05T03:02:11.346Z,55.53
2019-04-05T03:04:43.863Z,48.27
2019-04-05T03:07:15.978Z,60.10
2019-04-05T03:09:48.585Z,43.80
2019-04-05T03:12:20.493Z,58.07
2019-04-05T03:14:53.182Z,53.70
2019-04-05T03:17:25.733Z,58.47
2019-04-05T03:19:59.266Z,67.17
2019-04-05T03:22:33.288Z,64.90
2019-04-05T03:25:05.321Z,69.63
2019-04-05T03:27:38.137Z,94.93
2019-04-05T03:30:10.130Z,110.33
2019-04-05T03:32:42.529Z,121.77
2019-04-05T03:35:14.772Z,104.53
2019-04-05T03:37:46.986Z,124.33
2019-04-05T03:40:18.925Z,124.50
2019-04-05T03:42:50.809Z,112.77
2019-04-05T03:45:22.661Z,126.80
2019-04-05T03:47:54.490Z,123.80
2019-04-05T03:50:26.453Z,135.10
2019-04-05T03:52:58.392Z,118.97
2019-04-05T03:55:30.643Z,144.97
2019-04-05T03:58:03.045Z,176.27
2019-04-05T04:00:35.606Z,184.40
2019-04-05T04:03:07.437Z,197.07
2019-04-05T04:05:40.117Z,186.53
2019-04-05T04:08:12.045Z,146.77
2019-04-05T04:10:45.269Z,149.40
2019-04-05T04:13:17.955Z,189.57
2019-04-05T04:15:51.312Z,229.73
2019-04-05T04:18:23.445Z,245.30
2019-04-05T04:21:00.181Z,251.33
2019-04-05T04:23:32.322Z,282.53
2019-04-05T04:26:04.327Z,293.43
2019-04-05T04:28:36.264Z,288.77
2019-04-05T04:31:08.304Z,301.30
2019-04-05T04:33:40.330Z,343.27
2019-04-05T04:36:13.213Z,327.27
2019-04-05T04:38:45.348Z,296.90
2019-04-05T04:41:17.475Z,302.83
2019-04-05T04:43:49.531Z,332.13
2019-04-05T04:46:21.444Z,299.23
2019-04-05T04:48:53.408Z,304.90
2019-04-05T04:51:25.448Z,285.47
2019-04-05T04:53:58.188Z,262.70
2019-04-05T04:56:30.305Z,286.13
2019-04-05T04:59:02.751Z,240.60
2019-04-05T05:01:34.563Z,247.50
2019-04-05T05:04:08.462Z,227.07
2019-04-05T05:06:40.538Z,243.90
2019-04-05T05:09:12.443Z,234.50
2019-04-05T05:11:44.355Z,214.10
2019-04-05T05:14:16.480Z,196.13
2019-04-05T05:16:49.138Z,196.90
2019-04-05T05:19:20.944Z,185.43
2019-04-05T05:21:52.984Z,180.37
2019-04-05T05:24:24.788Z,171.47
2019-04-05T05:26:56.821Z,171.63
2019-04-05T05:29:28.736Z,167.67
2019-04-05T05:32:00.775Z,164.33
2019-04-05T05:34:32.740Z,155.83
2019-04-05T05:37:05.062Z,172.27
2019-04-05T05:39:36.850Z,170.23
2019-04-05T05:42:08.667Z,170.47
2019-04-05T05:44:40.545Z,162.20
2019-04-05T05:47:12.337Z,163.10
2019-04-05T05:49:44.051Z,158.67
2019-04-05T05:52:16.493Z,168.63
2019-04-05T05:54:48.199Z,167.93
2019-04-05T05:57:19.934Z,153.03
2019-04-05T05:59:51.656Z,152.57
2019-04-05T06:02:23.392Z,156.63
2019-04-05T06:04:55.337Z,158.33
2019-04-05T06:07:27.069Z,163.20
2019-04-05T06:09:58.785Z,163.17
2019-04-05T06:12:30.617Z,140.13
2019-04-05T06:15:02.796Z,150.43
2019-04-05T06:17:34.569Z,148.00
2019-04-05T06:20:07.005Z,150.97
2019-04-05T06:22:38.729Z,145.73
2019-04-05T06:25:10.666Z,132.40
2019-04-05T06:27:42.553Z,145.70
2019-04-05T06:30:14.324Z,125.47
2019-04-05T06:32:46.062Z,140.53
2019-04-05T06:35:17.848Z,131.73
2019-04-05T06:37:49.560Z,145.80
2019-04-05T06:40:21.267Z,137.37
2019-04-05T06:42:52.985Z,125.80
2019-04-05T06:45:24.696Z,124.60
2019-04-05T06:47:56.441Z,121.10
2019-04-05T06:50:28.148Z,125.83
2019-04-05T06:52:59.923Z,134.33
2019-04-05T06:55:32.238Z,130.07
2019-04-05T06:58:04.196Z,136.77
2019-04-05T07:00:35.996Z,118.77
2019-04-05T07:03:07.809Z,122.70
2019-04-05T07:05:39.612Z,114.17
2019-04-05T07:08:11.368Z,122.83
2019-04-05T07:10:45.214Z,126.33
2019-04-05T07:13:16.793Z,124.33
2019-04-05T07:15:48.601Z,113.10
2019-04-05T07:18:32.706Z,108.90
2019-04-05T07:20:54.296Z,124.40
2019-04-05T07:23:26.077Z,121.20
2019-04-05T07:25:57.919Z,120.23
2019-04-05T07:28:29.687Z,122.73
2019-04-05T07:31:01.395Z,113.43
2019-04-05T07:33:33.115Z,120.30
2019-04-05T07:36:04.829Z,111.07
2019-04-05T07:38:36.675Z,101.57
2019-04-05T07:41:08.373Z,104.50
2019-04-05T07:43:40.114Z,100.87
2019-04-05T07:46:11.941Z,106.80
2019-04-05T07:48:45.171Z,98.93
2019-04-05T07:51:17.286Z,97.27
2019-04-05T07:53:49.088Z,93.33
2019-04-05T07:56:20.779Z,97.37
2019-04-05T07:58:52.652Z,90.47
2019-04-05T08:01:24.358Z,96.00
2019-04-05T08:03:58.120Z,98.33
2019-04-05T08:06:31.366Z,95.60
2019-04-05T08:09:11.212Z,102.90
2019-04-05T08:11:44.146Z,101.67
2019-04-05T08:14:18.184Z,100.80
2019-04-05T08:16:50.303Z,103.10
2019-04-05T08:19:22.211Z,97.47
2019-04-05T08:21:54.019Z,94.47
2019-04-05T08:24:25.836Z,91.73
2019-04-05T08:26:57.528Z,92.50
2019-04-05T08:29:29.270Z,106.77
2019-04-05T08:32:13.678Z,107.27
2019-04-05T08:34:34.712Z,97.97
2019-04-05T08:37:06.420Z,103.40
2019-04-05T08:39:38.137Z,103.83
2019-04-05T08:42:10.937Z,97.03
2019-04-05T08:44:42.995Z,103.80
2019-04-05T08:47:14.708Z,94.77
2019-04-05T08:49:46.584Z,99.67
2019-04-05T08:52:18.326Z,90.67
2019-04-05T08:54:50.182Z,99.17
2019-04-05T08:57:21.904Z,98.03
2019-04-05T08:59:53.636Z,91.63
2019-04-05T09:02:25.329Z,95.10
2019-04-05T09:04:57.055Z,117.37
2019-04-05T09:07:28.799Z,109.60
2019-04-05T09:10:00.510Z,103.60
2019-04-05T09:12:32.229Z,100.83
2019-04-05T09:15:04.190Z,104.83
2019-04-05T09:17:35.995Z,103.50
2019-04-05T09:20:08.040Z,111.80
2019-04-05T09:22:39.755Z,106.73
2019-04-05T09:25:11.662Z,105.87
2019-04-05T09:27:43.365Z,105.47
2019-04-05T09:30:15.518Z,95.27
2019-04-05T09:32:47.224Z,97.87
2019-04-05T09:35:18.945Z,116.63
2019-04-05T09:37:50.667Z,92.13
2019-04-05T09:40:22.557Z,100.43
2019-04-05T09:42:54.287Z,103.13
2019-04-05T09:45:26.043Z,109.07
2019-04-05T09:47:57.833Z,97.10
2019-04-05T09:50:29.651Z,88.33
2019-04-05T09:53:01.545Z,89.83
2019-04-05T09:55:34.049Z,102.27
2019-04-05T09:58:05.780Z,97.87
2019-04-05T10:00:37.538Z,87.20
2019-04-05T10:03:09.236Z,96.50
2019-04-05T10:05:40.974Z,97.80
2019-04-05T10:08:12.789Z,94.37
2019-04-05T10:10:44.512Z,91.33
2019-04-05T10:13:16.305Z,96.90
2019-04-05T10:15:48.241Z,107.47
2019-04-05T10:18:19.944Z,105.37
2019-04-05T10:20:51.690Z,112.13
2019-04-05T10:23:23.406Z,107.63
2019-04-05T10:25:55.131Z,96.93
2019-04-05T10:28:26.869Z,120.63
2019-04-05T10:30:58.596Z,112.30
2019-04-05T10:33:30.297Z,102.27
2019-04-05T10:36:02.020Z,108.70
2019-04-05T10:38:33.843Z,109.20
2019-04-05T10:41:05.664Z,109.63
2019-04-05T10:43:37.569Z,98.67
2019-04-05T10:46:09.308Z,109.63
2019-04-05T10:48:41.102Z,102.63
2019-04-05T10:51:12.824Z,100.23
2019-04-05T10:53:44.625Z,96.63
2019-04-05T10:56:16.364Z,91.93
2019-04-05T10:58:48.084Z,109.17
2019-04-05T11:01:19.824Z,95.37
2019-04-05T11:03:51.539Z,92.93
2019-04-05T11:06:23.475Z,97.07
2019-04-05T11:08:55.187Z,83.37
2019-04-05T11:11:26.919Z,100.43
2019-04-05T11:13:58.646Z,87.57
2019-04-05T11:16:30.463Z,89.13
2019-04-05T11:19:02.679Z,95.27
2019-04-05T11:21:34.504Z,96.53
2019-04-05T11:24:06.229Z,90.50
2019-04-05T11:26:37.961Z,93.83
2019-04-05T11:29:09.662Z,105.33
2019-04-05T11:31:41.509Z,93.63
2019-04-05T11:34:13.335Z,90.50
2019-04-05T11:36:45.563Z,86.93
2019-04-05T11:39:17.780Z,85.40
2019-04-05T11:41:52.089Z,83.20
2019-04-05T11:44:25.556Z,86.93
2019-04-05T11:46:57.557Z,77.30
2019-04-05T11:49:29.750Z,78.67
2019-04-05T11:52:01.819Z,76.77
2019-04-05T11:54:33.624Z,75.93
2019-04-05T11:57:05.346Z,84.90
2019-04-05T11:59:37.062Z,84.43
2019-04-05T12:02:31.251Z,76.80
2019-04-05T12:05:04.534Z,78.80
2019-04-05T12:07:36.250Z,76.63
2019-04-05T12:10:08.465Z,78.63
2019-04-05T12:12:40.184Z,81.13
2019-04-05T12:15:11.934Z,73.37
2019-04-05T12:17:43.650Z,78.57
2019-04-05T12:20:15.665Z,82.37
2019-04-05T12:22:47.489Z,90.73
2019-04-05T12:25:19.386Z,78.27
2019-04-05T12:27:51.124Z,86.57
2019-04-05T12:30:23.428Z,90.60
2019-04-05T12:32:55.201Z,79.37
2019-04-05T12:35:27.029Z,81.40
2019-04-05T12:37:58.820Z,80.67
2019-04-05T12:40:30.542Z,86.33
2019-04-05T12:43:02.399Z,82.43
2019-04-05T12:45:34.314Z,80.90
2019-04-05T12:48:06.049Z,69.83
2019-04-05T12:50:37.887Z,76.43
2019-04-05T12:53:09.824Z,77.53
2019-04-05T12:55:41.515Z,75.60
2019-04-05T12:58:13.265Z,76.33
2019-04-05T13:00:45.019Z,72.87
2019-04-05T13:03:16.836Z,75.13
2019-04-05T13:05:51.325Z,77.50
2019-04-05T13:08:23.584Z,72.80
2019-04-05T13:10:56.174Z,76.97
2019-04-05T13:13:28.850Z,69.37
2019-04-05T13:16:00.774Z,77.57
2019-04-05T13:18:32.529Z,72.83
2019-04-05T13:21:14.327Z,72.60
2019-04-05T13:23:38.110Z,73.80
2019-04-05T13:26:12.363Z,77.93
2019-04-05T13:28:43.545Z,71.43
2019-04-05T13:31:18.260Z,64.20
2019-04-05T13:33:49.035Z,77.23
2019-04-05T13:36:20.832Z,64.37
2019-04-05T13:38:54.917Z,87.30
2019-04-05T13:41:26.199Z,75.67
2019-04-05T13:44:01.246Z,69.93
2019-04-05T13:46:31.573Z,79.40
2019-04-05T13:49:03.309Z,71.33
2019-04-05T13:51:35.156Z,71.77
2019-04-05T13:54:08.546Z,69.53
2019-04-05T13:56:41.430Z,70.67
2019-04-05T13:59:13.816Z,66.10
2019-04-05T14:01:45.568Z,61.77
2019-04-05T14:04:20.622Z,71.37
2019-04-05T14:06:53.286Z,71.57
2019-04-05T14:09:24.568Z,68.77
2019-04-05T14:11:56.277Z,59.87
2019-04-05T14:14:28.487Z,63.67
2019-04-05T14:17:00.508Z,68.40
2019-04-05T14:19:32.528Z,64.73
2019-04-05T14:22:08.899Z,70.63
2019-04-05T14:24:38.146Z,75.10
2019-04-05T14:27:09.863Z,71.13
2019-04-05T14:29:41.606Z,68.93
2019-04-05T14:32:21.076Z,67.47
2019-04-05T14:34:47.170Z,65.00
2019-04-05T14:37:21.372Z,74.07
2019-04-05T14:39:52.636Z,68.40
2019-04-05T14:42:24.340Z,64.23
2019-04-05T14:44:56.074Z,61.17
2019-04-05T14:47:28.870Z,64.20
2019-04-05T14:50:01.103Z,62.90
2019-04-05T14:52:32.917Z,59.73
2019-04-05T14:55:05.050Z,61.90
2019-04-05T14:57:36.804Z,69.37
2019-04-05T15:00:09.235Z,69.10
2019-04-05T15:02:43.669Z,63.50
2019-04-05T15:05:14.775Z,70.17
2019-04-05T15:07:46.518Z,65.37
2019-04-05T15:10:18.428Z,62.27
2019-04-05T15:12:50.223Z,64.53
2019-04-05T15:15:21.953Z,69.03
2019-04-05T15:17:53.707Z,61.13
2019-04-05T15:20:25.424Z,67.00
2019-04-05T15:22:57.145Z,67.00
2019-04-05T15:25:28.955Z,73.93
2019-04-05T15:28:00.765Z,68.47
2019-04-05T15:30:32.579Z,71.33
2019-04-05T15:33:05.090Z,66.00
2019-04-05T15:35:36.957Z,70.77
2019-04-05T15:38:08.775Z,66.87
2019-04-05T15:40:40.507Z,65.43
2019-04-05T15:43:12.232Z,70.10
2019-04-05T15:45:44.045Z,71.33
2019-04-05T15:48:15.740Z,68.77
2019-04-05T15:50:49.403Z,68.43
2019-04-05T15:53:21.077Z,66.63
2019-04-05T15:55:52.815Z,70.90
2019-04-05T15:58:24.629Z,68.63
2019-04-05T16:00:56.558Z,64.77
2019-04-05T16:03:28.260Z,68.80
2019-04-05T16:06:00.168Z,68.30
2019-04-05T16:08:31.984Z,71.67
2019-04-05T16:11:04.612Z,70.63
2019-04-05T16:13:36.423Z,70.03
2019-04-05T16:59:55.275Z,82.23
2019-04-05T17:05:52.532Z,91.83
2019-04-05T17:12:04.134Z,83.00
2019-04-05T17:14:35.972Z,92.00
2019-04-05T17:17:07.700Z,88.90
2019-04-05T17:19:39.623Z,99.80
2019-04-05T17:22:11.453Z,105.13
2019-04-05T17:24:43.276Z,92.63
2019-04-05T17:27:15.068Z,94.00
2019-04-05T17:29:46.853Z,98.67
2019-04-05T17:32:18.665Z,103.23
2019-04-05T17:34:50.374Z,102.23
2019-04-05T17:37:22.088Z,108.57
2019-04-05T17:39:53.800Z,92.80
2019-04-05T17:42:25.670Z,89.70
2019-04-05T17:44:57.473Z,94.73
2019-04-05T17:47:29.246Z,90.97
2019-04-05T17:50:01.087Z,105.73
2019-04-05T17:52:32.811Z,106.03
2019-04-05T17:55:04.731Z,97.93
2019-04-05T17:57:36.582Z,108.87
2019-04-05T18:00:13.273Z,110.87
2019-04-05T18:02:45.009Z,101.43
2019-04-05T18:05:16.717Z,110.20
2019-04-05T18:07:48.564Z,96.83
2019-04-05T18:10:20.418Z,118.17
2019-04-05T18:12:52.216Z,110.90
2019-04-05T18:44:20.152Z,115.37
2019-04-05T18:46:51.988Z,130.20
2019-04-05T18:49:23.842Z,118.83
2019-04-05T18:51:55.588Z,130.17
2019-04-05T18:54:27.325Z,131.93
2019-04-05T18:56:59.058Z,127.57
2019-04-05T18:59:30.848Z,123.13
2019-04-05T19:02:02.719Z,136.40
2019-04-05T19:04:34.457Z,128.23
2019-04-05T19:07:06.317Z,135.40
2019-04-05T19:09:39.641Z,139.10
2019-04-05T19:12:11.781Z,145.07
2019-04-05T19:14:43.729Z,131.20
2019-04-05T19:17:23.789Z,142.00
2019-04-05T19:19:49.397Z,134.23
2019-04-05T19:22:21.357Z,137.90
2019-04-05T19:24:53.391Z,125.67
2019-04-05T19:27:25.137Z,116.00
2019-04-05T19:29:57.441Z,129.20
2019-04-05T19:50:27.826Z,128.17
2019-04-05T19:52:59.915Z,138.23
2019-04-05T19:55:32.035Z,129.77
2019-04-05T19:58:04.366Z,132.23
2019-04-05T20:00:36.780Z,123.87
2019-04-05T20:03:08.850Z,130.97
2019-04-05T20:05:41.251Z,119.70
2019-04-05T20:08:13.217Z,122.43
2019-04-05T20:10:45.186Z,119.37
2019-04-05T20:13:17.166Z,121.73
2019-04-05T20:15:49.222Z,124.67
2019-04-05T20:18:21.064Z,116.07
2019-04-05T20:20:53.113Z,119.67
2019-04-05T20:23:24.954Z,130.33
2019-04-05T20:25:56.866Z,125.30
2019-04-05T20:28:28.708Z,124.27
2019-04-05T20:31:00.525Z,123.10
2019-04-05T20:33:32.399Z,105.30
2019-04-05T20:36:04.361Z,120.57
2019-04-05T20:38:36.216Z,136.77
2019-04-05T20:41:08.068Z,133.77
2019-04-05T20:43:40.289Z,130.03
2019-04-05T20:46:12.130Z,127.33
2019-04-05T20:48:43.856Z,141.97
2019-04-05T20:51:15.601Z,128.43
2019-04-05T20:53:47.312Z,120.37
2019-04-05T20:56:19.055Z,138.83
2019-04-05T20:58:50.740Z,130.90
2019-04-05T21:01:22.523Z,129.77
2019-04-05T21:03:54.479Z,143.43
2019-04-05T21:06:26.309Z,139.53
2019-04-05T21:08:58.125Z,132.47
2019-04-05T21:11:29.867Z,135.63
2019-04-05T21:14:01.708Z,128.60
2019-04-05T21:16:33.428Z,135.30
2019-04-05T21:19:05.201Z,140.00
2019-04-05T21:21:36.969Z,148.20
2019-04-05T21:24:08.690Z,147.37
2019-04-05T21:26:40.408Z,146.00
2019-04-05T21:29:12.244Z,139.73
2019-04-05T21:31:43.964Z,133.30
2019-04-05T21:34:15.676Z,142.20
2019-04-05T21:36:47.421Z,133.20
2019-04-05T21:39:19.134Z,152.63
2019-04-05T21:41:50.967Z,162.50
2019-04-05T21:44:22.782Z,157.70
2019-04-05T21:46:54.588Z,148.07
2019-04-05T21:49:26.324Z,147.80
2019-04-05T21:51:58.088Z,160.70
2019-04-05T21:54:29.849Z,166.87
2019-04-05T21:57:01.677Z,159.57
2019-04-05T21:59:33.389Z,162.47
2019-04-05T22:02:05.424Z,159.97
2019-04-05T22:04:37.239Z,155.43
2019-04-05T22:07:09.100Z,163.07
2019-04-05T22:09:40.814Z,145.63
2019-04-05T22:12:12.556Z,154.23
2019-04-05T22:14:44.253Z,176.63
2019-04-05T22:17:16.036Z,178.13
2019-04-05T22:19:47.847Z,168.37
2019-04-05T22:22:19.691Z,168.13
2019-04-05T22:24:59.171Z,169.10
2019-04-05T22:27:25.118Z,177.17
2019-04-05T22:29:56.837Z,179.67
2019-04-05T22:32:28.672Z,178.90
2019-04-05T22:35:00.376Z,177.47
2019-04-05T22:37:32.107Z,185.57
2019-04-05T22:40:04.554Z,186.87
2019-04-05T22:42:36.309Z,194.73
2019-04-05T22:45:08.262Z,178.47
2019-04-05T22:47:39.986Z,203.87
2019-04-05T22:50:12.392Z,200.53
2019-04-05T22:52:44.153Z,220.20
2019-04-05T22:55:15.849Z,201.67
2019-04-05T22:57:47.588Z,213.37
2019-04-05T23:00:19.512Z,212.73
2019-04-05T23:02:51.367Z,206.87
2019-04-05T23:05:23.185Z,231.03
2019-04-05T23:07:54.993Z,242.80
2019-04-05T23:10:26.870Z,265.30
2019-04-05T23:12:58.591Z,276.63
2019-04-05T23:15:30.303Z,276.17
2019-04-05T23:18:02.023Z,276.50
2019-04-05T23:20:33.771Z,280.17
2019-04-05T23:23:05.561Z,284.93
2019-04-05T23:25:37.261Z,296.70
2019-04-05T23:28:08.989Z,261.23
2019-04-05T23:30:40.714Z,291.43
2019-04-05T23:33:12.441Z,292.37
2019-04-05T23:35:44.165Z,260.53
2019-04-05T23:38:15.889Z,274.47
2019-04-05T23:40:47.582Z,298.30
2019-04-05T23:43:19.336Z,319.77
2019-04-05T23:45:51.108Z,305.57
2019-04-05T23:48:22.829Z,303.90
2019-04-05T23:50:54.532Z,314.13
2019-04-05T23:53:26.320Z,319.67
2019-04-05T23:55:58.087Z,293.97
2019-04-05T23:58:29.824Z,331.87
